sensor_id;sensor_type;location;lat;lon;timestamp;P1;durP1;ratioP1;P2;durP2;ratioP2
27558;SDS011;15002;52.028;5.670;2023-06-04T00:02:16;2.45;;;1.48;;
27558;SDS011;15002;52.028;5.670;2023-06-04T00:04:42;3.25;;;1.58;;
27558;SDS011;15002;52.028;5.670;2023-06-04T00:07:07;4.88;;;1.48;;
27558;SDS011;15002;52.028;5.670;2023-06-04T00:09:33;2.47;;;1.40;;
27558;SDS011;15002;52.028;5.670;2023-06-04T00:11:59;4.57;;;1.65;;
27558;SDS011;15002;52.028;5.670;2023-06-04T00:14:24;2.35;;;1.42;;
27558;SDS011;15002;52.028;5.670;2023-06-04T00:16:50;2.72;;;1.45;;
27558;SDS011;15002;52.028;5.670;2023-06-04T00:19:15;5.40;;;1.90;;
27558;SDS011;15002;52.028;5.670;2023-06-04T00:21:41;2.13;;;1.30;;
27558;SDS011;15002;52.028;5.670;2023-06-04T00:24:07;4.00;;;1.50;;
27558;SDS011;15002;52.028;5.670;2023-06-04T00:26:33;3.45;;;1.70;;
27558;SDS011;15002;52.028;5.670;2023-06-04T00:28:59;2.85;;;1.30;;
27558;SDS011;15002;52.028;5.670;2023-06-04T00:31:25;3.13;;;1.58;;
27558;SDS011;15002;52.028;5.670;2023-06-04T00:33:51;2.08;;;1.58;;
27558;SDS011;15002;52.028;5.670;2023-06-04T00:36:17;4.90;;;1.48;;
27558;SDS011;15002;52.028;5.670;2023-06-04T00:38:42;2.92;;;1.58;;
27558;SDS011;15002;52.028;5.670;2023-06-04T00:41:08;6.25;;;1.55;;
27558;SDS011;15002;52.028;5.670;2023-06-04T00:43:34;4.07;;;1.42;;
27558;SDS011;15002;52.028;5.670;2023-06-04T00:46:01;2.05;;;1.50;;
27558;SDS011;15002;52.028;5.670;2023-06-04T00:48:28;2.17;;;1.60;;
27558;SDS011;15002;52.028;5.670;2023-06-04T00:50:55;4.72;;;1.60;;
27558;SDS011;15002;52.028;5.670;2023-06-04T00:53:22;3.35;;;1.50;;
27558;SDS011;15002;52.028;5.670;2023-06-04T00:55:49;4.45;;;1.50;;
27558;SDS011;15002;52.028;5.670;2023-06-04T00:58:15;2.63;;;1.42;;
27558;SDS011;15002;52.028;5.670;2023-06-04T01:00:44;3.92;;;1.50;;
27558;SDS011;15002;52.028;5.670;2023-06-04T01:03:14;1.67;;;1.42;;
27558;SDS011;15002;52.028;5.670;2023-06-04T01:05:44;2.17;;;1.48;;
27558;SDS011;15002;52.028;5.670;2023-06-04T01:08:20;3.17;;;1.60;;
27558;SDS011;15002;52.028;5.670;2023-06-04T01:10:52;3.13;;;1.48;;
27558;SDS011;15002;52.028;5.670;2023-06-04T01:13:19;3.13;;;1.50;;
27558;SDS011;15002;52.028;5.670;2023-06-04T01:15:44;2.95;;;1.38;;
27558;SDS011;15002;52.028;5.670;2023-06-04T01:18:10;1.80;;;1.52;;
27558;SDS011;15002;52.028;5.670;2023-06-04T01:20:52;3.53;;;1.60;;
27558;SDS011;15002;52.028;5.670;2023-06-04T01:26:23;2.97;;;1.50;;
27558;SDS011;15002;52.028;5.670;2023-06-04T01:28:51;2.85;;;1.60;;
27558;SDS011;15002;52.028;5.670;2023-06-04T01:31:18;5.72;;;1.50;;
27558;SDS011;15002;52.028;5.670;2023-06-04T01:33:48;5.10;;;1.50;;
27558;SDS011;15002;52.028;5.670;2023-06-04T01:36:16;3.63;;;1.52;;
27558;SDS011;15002;52.028;5.670;2023-06-04T01:38:41;1.92;;;1.27;;
27558;SDS011;15002;52.028;5.670;2023-06-04T01:41:07;3.38;;;1.50;;
27558;SDS011;15002;52.028;5.670;2023-06-04T01:43:33;3.40;;;1.60;;
27558;SDS011;15002;52.028;5.670;2023-06-04T01:46:00;4.25;;;2.08;;
27558;SDS011;15002;52.028;5.670;2023-06-04T01:48:26;3.38;;;1.40;;
27558;SDS011;15002;52.028;5.670;2023-06-04T01:50:52;3.65;;;1.65;;
27558;SDS011;15002;52.028;5.670;2023-06-04T01:53:18;4.00;;;1.50;;
27558;SDS011;15002;52.028;5.670;2023-06-04T01:55:43;3.88;;;1.65;;
27558;SDS011;15002;52.028;5.670;2023-06-04T01:58:09;3.17;;;1.90;;
27558;SDS011;15002;52.028;5.670;2023-06-04T02:00:35;3.72;;;1.73;;
27558;SDS011;15002;52.028;5.670;2023-06-04T02:03:00;3.45;;;1.75;;
27558;SDS011;15002;52.028;5.670;2023-06-04T02:05:27;2.63;;;2.10;;
27558;SDS011;15002;52.028;5.670;2023-06-04T02:07:52;3.00;;;2.00;;
27558;SDS011;15002;52.028;5.670;2023-06-04T02:10:18;3.67;;;1.63;;
27558;SDS011;15002;52.028;5.670;2023-06-04T02:12:55;2.35;;;1.80;;
27558;SDS011;15002;52.028;5.670;2023-06-04T02:15:26;5.07;;;1.52;;
27558;SDS011;15002;52.028;5.670;2023-06-04T02:17:59;5.07;;;1.73;;
27558;SDS011;15002;52.028;5.670;2023-06-04T02:20:40;2.35;;;1.50;;
27558;SDS011;15002;52.028;5.670;2023-06-04T02:23:06;4.50;;;1.70;;
27558;SDS011;15002;52.028;5.670;2023-06-04T02:25:32;3.55;;;1.65;;
27558;SDS011;15002;52.028;5.670;2023-06-04T02:27:57;2.45;;;1.83;;
27558;SDS011;15002;52.028;5.670;2023-06-04T02:30:23;2.55;;;1.45;;
27558;SDS011;15002;52.028;5.670;2023-06-04T02:32:49;4.47;;;1.92;;
27558;SDS011;15002;52.028;5.670;2023-06-04T02:35:15;2.28;;;1.58;;
27558;SDS011;15002;52.028;5.670;2023-06-04T02:37:42;4.30;;;1.83;;
27558;SDS011;15002;52.028;5.670;2023-06-04T02:40:08;3.30;;;1.77;;
27558;SDS011;15002;52.028;5.670;2023-06-04T02:42:35;7.43;;;2.35;;
27558;SDS011;15002;52.028;5.670;2023-06-04T02:45:00;6.18;;;2.22;;
27558;SDS011;15002;52.028;5.670;2023-06-04T02:47:27;7.78;;;1.92;;
27558;SDS011;15002;52.028;5.670;2023-06-04T02:49:52;6.20;;;1.88;;
27558;SDS011;15002;52.028;5.670;2023-06-04T02:52:18;14.23;;;2.00;;
27558;SDS011;15002;52.028;5.670;2023-06-04T02:54:43;3.58;;;1.80;;
27558;SDS011;15002;52.028;5.670;2023-06-04T02:57:09;7.28;;;2.15;;
27558;SDS011;15002;52.028;5.670;2023-06-04T02:59:35;3.75;;;1.55;;
27558;SDS011;15002;52.028;5.670;2023-06-04T03:02:01;4.72;;;2.20;;
27558;SDS011;15002;52.028;5.670;2023-06-04T03:04:27;15.02;;;1.77;;
27558;SDS011;15002;52.028;5.670;2023-06-04T03:09:25;6.78;;;1.77;;
27558;SDS011;15002;52.028;5.670;2023-06-04T03:11:51;10.02;;;1.88;;
27558;SDS011;15002;52.028;5.670;2023-06-04T03:14:16;11.00;;;1.50;;
27558;SDS011;15002;52.028;5.670;2023-06-04T03:16:43;4.18;;;1.65;;
27558;SDS011;15002;52.028;5.670;2023-06-04T03:19:10;2.58;;;1.70;;
27558;SDS011;15002;52.028;5.670;2023-06-04T03:21:37;4.00;;;2.00;;
27558;SDS011;15002;52.028;5.670;2023-06-04T03:24:04;3.28;;;1.75;;
27558;SDS011;15002;52.028;5.670;2023-06-04T03:26:31;8.68;;;1.85;;
27558;SDS011;15002;52.028;5.670;2023-06-04T03:28:56;4.13;;;2.08;;
27558;SDS011;15002;52.028;5.670;2023-06-04T03:31:22;2.60;;;2.13;;
27558;SDS011;15002;52.028;5.670;2023-06-04T03:33:48;2.85;;;1.60;;
27558;SDS011;15002;52.028;5.670;2023-06-04T03:36:13;4.20;;;1.70;;
27558;SDS011;15002;52.028;5.670;2023-06-04T03:38:41;3.70;;;1.40;;
27558;SDS011;15002;52.028;5.670;2023-06-04T03:41:06;5.22;;;2.00;;
27558;SDS011;15002;52.028;5.670;2023-06-04T03:43:32;3.33;;;1.88;;
27558;SDS011;15002;52.028;5.670;2023-06-04T03:45:58;4.05;;;2.25;;
27558;SDS011;15002;52.028;5.670;2023-06-04T03:48:23;2.20;;;1.65;;
27558;SDS011;15002;52.028;5.670;2023-06-04T03:50:49;4.47;;;2.25;;
27558;SDS011;15002;52.028;5.670;2023-06-04T03:53:15;3.08;;;2.25;;
27558;SDS011;15002;52.028;5.670;2023-06-04T03:55:41;3.17;;;1.80;;
27558;SDS011;15002;52.028;5.670;2023-06-04T03:58:06;5.90;;;2.13;;
27558;SDS011;15002;52.028;5.670;2023-06-04T04:00:34;6.30;;;1.48;;
27558;SDS011;15002;52.028;5.670;2023-06-04T04:03:00;3.38;;;1.85;;
27558;SDS011;15002;52.028;5.670;2023-06-04T04:05:25;4.03;;;1.83;;
27558;SDS011;15002;52.028;5.670;2023-06-04T04:07:51;3.83;;;2.25;;
27558;SDS011;15002;52.028;5.670;2023-06-04T04:10:16;7.03;;;2.30;;
27558;SDS011;15002;52.028;5.670;2023-06-04T04:12:42;5.18;;;2.22;;
27558;SDS011;15002;52.028;5.670;2023-06-04T04:15:08;3.88;;;1.90;;
27558;SDS011;15002;52.028;5.670;2023-06-04T04:17:34;3.97;;;2.10;;
27558;SDS011;15002;52.028;5.670;2023-06-04T04:20:00;3.08;;;1.98;;
27558;SDS011;15002;52.028;5.670;2023-06-04T04:22:30;3.47;;;2.47;;
27558;SDS011;15002;52.028;5.670;2023-06-04T04:24:56;3.25;;;2.20;;
27558;SDS011;15002;52.028;5.670;2023-06-04T04:27:22;4.65;;;2.10;;
27558;SDS011;15002;52.028;5.670;2023-06-04T04:29:48;5.72;;;2.05;;
27558;SDS011;15002;52.028;5.670;2023-06-04T04:32:13;3.17;;;1.75;;
27558;SDS011;15002;52.028;5.670;2023-06-04T04:34:49;5.45;;;2.15;;
27558;SDS011;15002;52.028;5.670;2023-06-04T04:37:20;3.72;;;2.60;;
27558;SDS011;15002;52.028;5.670;2023-06-04T04:39:46;4.65;;;2.17;;
27558;SDS011;15002;52.028;5.670;2023-06-04T04:42:12;5.78;;;2.05;;
27558;SDS011;15002;52.028;5.670;2023-06-04T04:44:38;4.72;;;2.08;;
27558;SDS011;15002;52.028;5.670;2023-06-04T04:47:04;5.63;;;2.30;;
27558;SDS011;15002;52.028;5.670;2023-06-04T04:49:29;2.78;;;1.80;;
27558;SDS011;15002;52.028;5.670;2023-06-04T04:51:55;2.50;;;1.80;;
27558;SDS011;15002;52.028;5.670;2023-06-04T04:54:21;3.67;;;2.30;;
27558;SDS011;15002;52.028;5.670;2023-06-04T04:56:46;2.53;;;2.03;;
27558;SDS011;15002;52.028;5.670;2023-06-04T04:59:12;3.00;;;2.00;;
27558;SDS011;15002;52.028;5.670;2023-06-04T05:01:37;3.60;;;2.65;;
27558;SDS011;15002;52.028;5.670;2023-06-04T05:04:03;2.90;;;1.70;;
27558;SDS011;15002;52.028;5.670;2023-06-04T05:06:29;6.28;;;2.00;;
27558;SDS011;15002;52.028;5.670;2023-06-04T05:08:54;3.30;;;1.90;;
27558;SDS011;15002;52.028;5.670;2023-06-04T05:11:20;4.13;;;2.08;;
27558;SDS011;15002;52.028;5.670;2023-06-04T05:13:46;2.80;;;1.85;;
27558;SDS011;15002;52.028;5.670;2023-06-04T05:16:11;4.63;;;1.92;;
27558;SDS011;15002;52.028;5.670;2023-06-04T05:18:38;5.07;;;1.95;;
27558;SDS011;15002;52.028;5.670;2023-06-04T05:21:06;3.20;;;1.75;;
27558;SDS011;15002;52.028;5.670;2023-06-04T05:23:32;2.88;;;2.22;;
27558;SDS011;15002;52.028;5.670;2023-06-04T05:25:59;4.55;;;2.05;;
27558;SDS011;15002;52.028;5.670;2023-06-04T05:28:28;3.25;;;1.70;;
27558;SDS011;15002;52.028;5.670;2023-06-04T05:30:54;2.38;;;1.63;;
27558;SDS011;15002;52.028;5.670;2023-06-04T05:33:27;3.65;;;1.85;;
27558;SDS011;15002;52.028;5.670;2023-06-04T05:35:55;3.67;;;2.05;;
27558;SDS011;15002;52.028;5.670;2023-06-04T05:38:23;3.50;;;1.95;;
27558;SDS011;15002;52.028;5.670;2023-06-04T05:40:53;4.93;;;1.90;;
27558;SDS011;15002;52.028;5.670;2023-06-04T05:43:20;5.82;;;1.67;;
27558;SDS011;15002;52.028;5.670;2023-06-04T05:45:46;2.85;;;1.92;;
27558;SDS011;15002;52.028;5.670;2023-06-04T05:48:12;2.67;;;1.60;;
27558;SDS011;15002;52.028;5.670;2023-06-04T05:50:37;5.65;;;2.00;;
27558;SDS011;15002;52.028;5.670;2023-06-04T05:53:03;4.18;;;1.60;;
27558;SDS011;15002;52.028;5.670;2023-06-04T05:55:29;4.53;;;2.00;;
27558;SDS011;15002;52.028;5.670;2023-06-04T05:57:55;7.07;;;1.90;;
27558;SDS011;15002;52.028;5.670;2023-06-04T06:00:21;4.95;;;1.50;;
27558;SDS011;15002;52.028;5.670;2023-06-04T06:02:47;2.55;;;1.63;;
27558;SDS011;15002;52.028;5.670;2023-06-04T06:05:17;4.28;;;1.50;;
27558;SDS011;15002;52.028;5.670;2023-06-04T06:07:44;3.50;;;1.70;;
27558;SDS011;15002;52.028;5.670;2023-06-04T06:10:10;4.28;;;1.92;;
27558;SDS011;15002;52.028;5.670;2023-06-04T06:12:37;8.02;;;1.88;;
27558;SDS011;15002;52.028;5.670;2023-06-04T06:15:02;6.40;;;1.60;;
27558;SDS011;15002;52.028;5.670;2023-06-04T06:17:28;4.03;;;1.52;;
27558;SDS011;15002;52.028;5.670;2023-06-04T06:19:54;4.28;;;1.60;;
27558;SDS011;15002;52.028;5.670;2023-06-04T06:22:21;4.28;;;1.77;;
27558;SDS011;15002;52.028;5.670;2023-06-04T06:24:47;3.63;;;1.67;;
27558;SDS011;15002;52.028;5.670;2023-06-04T06:27:13;6.30;;;1.42;;
27558;SDS011;15002;52.028;5.670;2023-06-04T06:29:40;3.28;;;1.80;;
27558;SDS011;15002;52.028;5.670;2023-06-04T06:32:07;4.03;;;1.52;;
27558;SDS011;15002;52.028;5.670;2023-06-04T06:34:33;4.05;;;1.48;;
27558;SDS011;15002;52.028;5.670;2023-06-04T06:36:58;3.90;;;1.48;;
27558;SDS011;15002;52.028;5.670;2023-06-04T06:39:24;3.10;;;1.40;;
27558;SDS011;15002;52.028;5.670;2023-06-04T06:41:50;4.53;;;1.40;;
27558;SDS011;15002;52.028;5.670;2023-06-04T06:44:16;3.58;;;1.50;;
27558;SDS011;15002;52.028;5.670;2023-06-04T06:46:41;3.83;;;1.42;;
27558;SDS011;15002;52.028;5.670;2023-06-04T06:49:07;2.42;;;1.27;;
27558;SDS011;15002;52.028;5.670;2023-06-04T06:51:33;2.08;;;1.05;;
27558;SDS011;15002;52.028;5.670;2023-06-04T06:53:58;3.30;;;1.60;;
27558;SDS011;15002;52.028;5.670;2023-06-04T06:56:24;1.80;;;1.30;;
27558;SDS011;15002;52.028;5.670;2023-06-04T06:58:51;2.78;;;1.10;;
27558;SDS011;15002;52.028;5.670;2023-06-04T07:01:16;4.78;;;2.08;;
27558;SDS011;15002;52.028;5.670;2023-06-04T07:03:42;6.50;;;1.40;;
27558;SDS011;15002;52.028;5.670;2023-06-04T07:06:08;3.67;;;1.15;;
27558;SDS011;15002;52.028;5.670;2023-06-04T07:08:34;4.47;;;1.80;;
27558;SDS011;15002;52.028;5.670;2023-06-04T07:11:00;3.17;;;1.40;;
27558;SDS011;15002;52.028;5.670;2023-06-04T07:13:27;5.78;;;1.40;;
27558;SDS011;15002;52.028;5.670;2023-06-04T07:15:53;2.17;;;0.90;;
27558;SDS011;15002;52.028;5.670;2023-06-04T07:18:19;2.83;;;1.20;;
27558;SDS011;15002;52.028;5.670;2023-06-04T07:20:45;2.45;;;1.10;;
27558;SDS011;15002;52.028;5.670;2023-06-04T07:23:11;2.33;;;1.13;;
27558;SDS011;15002;52.028;5.670;2023-06-04T07:25:36;4.10;;;1.33;;
27558;SDS011;15002;52.028;5.670;2023-06-04T07:28:02;1.45;;;1.00;;
27558;SDS011;15002;52.028;5.670;2023-06-04T07:30:29;2.72;;;1.33;;
27558;SDS011;15002;52.028;5.670;2023-06-04T07:32:56;1.45;;;1.00;;
27558;SDS011;15002;52.028;5.670;2023-06-04T07:35:22;1.42;;;0.80;;
27558;SDS011;15002;52.028;5.670;2023-06-04T07:37:49;2.90;;;1.27;;
27558;SDS011;15002;52.028;5.670;2023-06-04T07:40:15;2.38;;;1.30;;
27558;SDS011;15002;52.028;5.670;2023-06-04T07:42:42;4.32;;;1.40;;
27558;SDS011;15002;52.028;5.670;2023-06-04T07:45:08;1.50;;;0.82;;
27558;SDS011;15002;52.028;5.670;2023-06-04T07:47:37;3.72;;;1.35;;
27558;SDS011;15002;52.028;5.670;2023-06-04T07:50:03;1.45;;;0.90;;
27558;SDS011;15002;52.028;5.670;2023-06-04T07:52:30;1.88;;;1.00;;
27558;SDS011;15002;52.028;5.670;2023-06-04T07:54:56;2.92;;;1.10;;
27558;SDS011;15002;52.028;5.670;2023-06-04T07:57:22;2.42;;;1.27;;
27558;SDS011;15002;52.028;5.670;2023-06-04T07:59:48;4.93;;;1.02;;
27558;SDS011;15002;52.028;5.670;2023-06-04T08:02:14;2.15;;;0.80;;
27558;SDS011;15002;52.028;5.670;2023-06-04T08:04:39;2.08;;;1.13;;
27558;SDS011;15002;52.028;5.670;2023-06-04T08:07:05;3.88;;;1.50;;
27558;SDS011;15002;52.028;5.670;2023-06-04T08:09:31;2.53;;;1.10;;
27558;SDS011;15002;52.028;5.670;2023-06-04T08:11:57;1.83;;;1.10;;
27558;SDS011;15002;52.028;5.670;2023-06-04T08:14:23;4.03;;;1.20;;
27558;SDS011;15002;52.028;5.670;2023-06-04T08:16:51;2.90;;;0.90;;
27558;SDS011;15002;52.028;5.670;2023-06-04T08:19:20;2.00;;;1.08;;
27558;SDS011;15002;52.028;5.670;2023-06-04T08:21:45;2.50;;;0.98;;
27558;SDS011;15002;52.028;5.670;2023-06-04T08:24:12;2.67;;;1.05;;
27558;SDS011;15002;52.028;5.670;2023-06-04T08:26:38;3.30;;;1.10;;
27558;SDS011;15002;52.028;5.670;2023-06-04T08:29:04;1.35;;;1.10;;
27558;SDS011;15002;52.028;5.670;2023-06-04T08:31:31;1.73;;;1.10;;
27558;SDS011;15002;52.028;5.670;2023-06-04T08:33:57;2.90;;;1.20;;
27558;SDS011;15002;52.028;5.670;2023-06-04T08:36:22;1.73;;;1.00;;
27558;SDS011;15002;52.028;5.670;2023-06-04T08:38:48;2.40;;;1.17;;
27558;SDS011;15002;52.028;5.670;2023-06-04T08:44:09;1.65;;;1.10;;
27558;SDS011;15002;52.028;5.670;2023-06-04T08:46:38;2.35;;;1.00;;
27558;SDS011;15002;52.028;5.670;2023-06-04T08:49:08;1.77;;;0.95;;
27558;SDS011;15002;52.028;5.670;2023-06-04T08:51:35;4.68;;;1.27;;
27558;SDS011;15002;52.028;5.670;2023-06-04T08:54:05;1.55;;;0.90;;
27558;SDS011;15002;52.028;5.670;2023-06-04T08:56:33;1.77;;;0.90;;
27558;SDS011;15002;52.028;5.670;2023-06-04T08:59:00;6.20;;;1.35;;
27558;SDS011;15002;52.028;5.670;2023-06-04T09:01:28;2.63;;;1.20;;
27558;SDS011;15002;52.028;5.670;2023-06-04T09:03:59;3.45;;;0.88;;
27558;SDS011;15002;52.028;5.670;2023-06-04T09:06:26;2.55;;;1.33;;
27558;SDS011;15002;52.028;5.670;2023-06-04T09:08:53;4.15;;;1.30;;
27558;SDS011;15002;52.028;5.670;2023-06-04T09:11:30;4.75;;;1.20;;
27558;SDS011;15002;52.028;5.670;2023-06-04T09:14:03;1.83;;;1.08;;
27558;SDS011;15002;52.028;5.670;2023-06-04T09:16:33;1.77;;;1.15;;
27558;SDS011;15002;52.028;5.670;2023-06-04T09:19:07;3.40;;;1.10;;
27558;SDS011;15002;52.028;5.670;2023-06-04T09:21:33;1.58;;;1.02;;
27558;SDS011;15002;52.028;5.670;2023-06-04T09:23:59;1.80;;;1.13;;
27558;SDS011;15002;52.028;5.670;2023-06-04T09:26:24;3.45;;;1.20;;
27558;SDS011;15002;52.028;5.670;2023-06-04T09:28:50;3.08;;;1.20;;
27558;SDS011;15002;52.028;5.670;2023-06-04T09:31:20;2.20;;;1.05;;
27558;SDS011;15002;52.028;5.670;2023-06-04T09:33:48;1.77;;;0.88;;
27558;SDS011;15002;52.028;5.670;2023-06-04T09:36:14;2.13;;;0.90;;
27558;SDS011;15002;52.028;5.670;2023-06-04T09:38:41;2.08;;;1.02;;
27558;SDS011;15002;52.028;5.670;2023-06-04T09:41:13;1.52;;;0.90;;
27558;SDS011;15002;52.028;5.670;2023-06-04T09:43:41;2.95;;;0.88;;
27558;SDS011;15002;52.028;5.670;2023-06-04T09:46:16;3.05;;;1.00;;
27558;SDS011;15002;52.028;5.670;2023-06-04T09:48:43;1.80;;;0.73;;
27558;SDS011;15002;52.028;5.670;2023-06-04T09:51:10;1.80;;;0.85;;
27558;SDS011;15002;52.028;5.670;2023-06-04T09:53:36;2.03;;;1.00;;
27558;SDS011;15002;52.028;5.670;2023-06-04T09:56:03;2.08;;;0.95;;
27558;SDS011;15002;52.028;5.670;2023-06-04T09:58:31;1.65;;;1.02;;
27558;SDS011;15002;52.028;5.670;2023-06-04T10:00:57;1.38;;;0.80;;
27558;SDS011;15002;52.028;5.670;2023-06-04T10:03:24;1.83;;;1.00;;
27558;SDS011;15002;52.028;5.670;2023-06-04T10:05:55;2.15;;;0.70;;
27558;SDS011;15002;52.028;5.670;2023-06-04T10:08:22;2.88;;;1.00;;
27558;SDS011;15002;52.028;5.670;2023-06-04T10:10:51;3.63;;;0.85;;
27558;SDS011;15002;52.028;5.670;2023-06-04T10:13:21;2.00;;;1.10;;
27558;SDS011;15002;52.028;5.670;2023-06-04T10:15:51;2.17;;;1.10;;
27558;SDS011;15002;52.028;5.670;2023-06-04T10:18:17;1.88;;;1.00;;
27558;SDS011;15002;52.028;5.670;2023-06-04T10:20:43;1.85;;;0.88;;
27558;SDS011;15002;52.028;5.670;2023-06-04T10:23:10;1.77;;;0.98;;
27558;SDS011;15002;52.028;5.670;2023-06-04T10:25:36;2.97;;;0.90;;
27558;SDS011;15002;52.028;5.670;2023-06-04T10:28:02;2.60;;;1.15;;
27558;SDS011;15002;52.028;5.670;2023-06-04T10:30:31;2.10;;;1.30;;
27558;SDS011;15002;52.028;5.670;2023-06-04T10:33:00;2.85;;;1.08;;
27558;SDS011;15002;52.028;5.670;2023-06-04T10:35:29;1.23;;;1.13;;
27558;SDS011;15002;52.028;5.670;2023-06-04T10:38:09;2.90;;;1.23;;
27558;SDS011;15002;52.028;5.670;2023-06-04T10:40:36;3.15;;;0.90;;
27558;SDS011;15002;52.028;5.670;2023-06-04T10:43:06;3.17;;;1.20;;
27558;SDS011;15002;52.028;5.670;2023-06-04T10:45:32;1.85;;;1.30;;
27558;SDS011;15002;52.028;5.670;2023-06-04T10:48:04;1.30;;;1.00;;
27558;SDS011;15002;52.028;5.670;2023-06-04T10:50:32;3.33;;;1.40;;
27558;SDS011;15002;52.028;5.670;2023-06-04T10:52:59;2.08;;;1.20;;
27558;SDS011;15002;52.028;5.670;2023-06-04T10:55:29;2.35;;;0.80;;
27558;SDS011;15002;52.028;5.670;2023-06-04T10:57:59;5.43;;;1.10;;
27558;SDS011;15002;52.028;5.670;2023-06-04T11:03:06;2.30;;;1.45;;
27558;SDS011;15002;52.028;5.670;2023-06-04T11:05:33;2.20;;;1.35;;
27558;SDS011;15002;52.028;5.670;2023-06-04T11:08:00;3.83;;;1.35;;
27558;SDS011;15002;52.028;5.670;2023-06-04T11:10:30;3.47;;;1.30;;
27558;SDS011;15002;52.028;5.670;2023-06-04T11:12:58;2.78;;;1.40;;
27558;SDS011;15002;52.028;5.670;2023-06-04T11:15:24;2.45;;;1.23;;
27558;SDS011;15002;52.028;5.670;2023-06-04T11:17:50;1.83;;;1.08;;
27558;SDS011;15002;52.028;5.670;2023-06-04T11:20:21;2.55;;;1.20;;
27558;SDS011;15002;52.028;5.670;2023-06-04T11:22:57;3.45;;;1.20;;
27558;SDS011;15002;52.028;5.670;2023-06-04T11:25:28;3.17;;;1.00;;
27558;SDS011;15002;52.028;5.670;2023-06-04T11:27:56;2.60;;;1.33;;
27558;SDS011;15002;52.028;5.670;2023-06-04T11:30:23;2.13;;;1.20;;
27558;SDS011;15002;52.028;5.670;2023-06-04T11:32:49;2.70;;;1.13;;
27558;SDS011;15002;52.028;5.670;2023-06-04T11:35:15;3.58;;;1.33;;
27558;SDS011;15002;52.028;5.670;2023-06-04T11:37:41;3.33;;;1.23;;
27558;SDS011;15002;52.028;5.670;2023-06-04T11:40:18;4.82;;;1.30;;
27558;SDS011;15002;52.028;5.670;2023-06-04T11:42:44;3.30;;;1.10;;
27558;SDS011;15002;52.028;5.670;2023-06-04T11:45:14;2.20;;;1.30;;
27558;SDS011;15002;52.028;5.670;2023-06-04T11:47:44;4.07;;;1.52;;
27558;SDS011;15002;52.028;5.670;2023-06-04T11:50:11;2.22;;;1.30;;
27558;SDS011;15002;52.028;5.670;2023-06-04T11:52:37;2.55;;;1.10;;
27558;SDS011;15002;52.028;5.670;2023-06-04T11:55:04;2.78;;;1.50;;
27558;SDS011;15002;52.028;5.670;2023-06-04T11:57:34;1.73;;;1.20;;
27558;SDS011;15002;52.028;5.670;2023-06-04T12:00:01;2.08;;;1.20;;
27558;SDS011;15002;52.028;5.670;2023-06-04T12:02:27;3.92;;;1.45;;
27558;SDS011;15002;52.028;5.670;2023-06-04T12:04:53;1.85;;;1.30;;
27558;SDS011;15002;52.028;5.670;2023-06-04T12:07:21;2.50;;;1.20;;
27558;SDS011;15002;52.028;5.670;2023-06-04T12:09:49;2.58;;;1.33;;
27558;SDS011;15002;52.028;5.670;2023-06-04T12:12:15;2.13;;;1.20;;
27558;SDS011;15002;52.028;5.670;2023-06-04T12:14:55;2.35;;;1.40;;
27558;SDS011;15002;52.028;5.670;2023-06-04T12:17:21;1.75;;;1.27;;
27558;SDS011;15002;52.028;5.670;2023-06-04T12:19:48;2.55;;;1.27;;
27558;SDS011;15002;52.028;5.670;2023-06-04T12:22:15;2.08;;;1.40;;
27558;SDS011;15002;52.028;5.670;2023-06-04T12:24:50;2.88;;;1.15;;
27558;SDS011;15002;52.028;5.670;2023-06-04T12:27:19;3.20;;;1.63;;
27558;SDS011;15002;52.028;5.670;2023-06-04T12:32:25;3.58;;;1.38;;
27558;SDS011;15002;52.028;5.670;2023-06-04T12:34:51;1.60;;;1.23;;
27558;SDS011;15002;52.028;5.670;2023-06-04T12:37:17;2.17;;;1.20;;
27558;SDS011;15002;52.028;5.670;2023-06-04T12:39:43;3.47;;;1.30;;
27558;SDS011;15002;52.028;5.670;2023-06-04T12:42:09;4.07;;;1.40;;
27558;SDS011;15002;52.028;5.670;2023-06-04T12:44:43;3.63;;;1.27;;
27558;SDS011;15002;52.028;5.670;2023-06-04T12:47:09;3.40;;;1.40;;
27558;SDS011;15002;52.028;5.670;2023-06-04T12:49:35;1.75;;;1.40;;
27558;SDS011;15002;52.028;5.670;2023-06-04T12:52:00;2.67;;;1.40;;
27558;SDS011;15002;52.028;5.670;2023-06-04T12:54:26;5.15;;;1.48;;
27558;SDS011;15002;52.028;5.670;2023-06-04T12:56:52;8.27;;;1.65;;
27558;SDS011;15002;52.028;5.670;2023-06-04T12:59:18;1.88;;;1.33;;
27558;SDS011;15002;52.028;5.670;2023-06-04T13:01:44;2.25;;;1.30;;
27558;SDS011;15002;52.028;5.670;2023-06-04T13:04:09;4.90;;;1.65;;
27558;SDS011;15002;52.028;5.670;2023-06-04T13:06:35;1.80;;;1.45;;
27558;SDS011;15002;52.028;5.670;2023-06-04T13:09:02;6.72;;;1.73;;
27558;SDS011;15002;52.028;5.670;2023-06-04T13:11:34;4.68;;;1.80;;
27558;SDS011;15002;52.028;5.670;2023-06-04T13:14:09;2.53;;;1.50;;
27558;SDS011;15002;52.028;5.670;2023-06-04T13:16:35;2.63;;;1.58;;
27558;SDS011;15002;52.028;5.670;2023-06-04T13:19:01;5.10;;;1.60;;
27558;SDS011;15002;52.028;5.670;2023-06-04T13:21:27;2.78;;;1.60;;
27558;SDS011;15002;52.028;5.670;2023-06-04T13:23:53;2.08;;;1.40;;
27558;SDS011;15002;52.028;5.670;2023-06-04T13:26:19;2.78;;;1.40;;
27558;SDS011;15002;52.028;5.670;2023-06-04T13:28:46;4.00;;;1.70;;
27558;SDS011;15002;52.028;5.670;2023-06-04T13:31:11;1.60;;;1.40;;
27558;SDS011;15002;52.028;5.670;2023-06-04T13:33:37;3.25;;;1.30;;
27558;SDS011;15002;52.028;5.670;2023-06-04T13:36:04;2.05;;;1.40;;
27558;SDS011;15002;52.028;5.670;2023-06-04T13:38:31;2.00;;;1.33;;
27558;SDS011;15002;52.028;5.670;2023-06-04T13:40:57;3.60;;;1.67;;
27558;SDS011;15002;52.028;5.670;2023-06-04T13:43:23;2.47;;;1.42;;
27558;SDS011;15002;52.028;5.670;2023-06-04T13:45:48;2.17;;;1.25;;
27558;SDS011;15002;52.028;5.670;2023-06-04T13:48:14;3.38;;;1.60;;
27558;SDS011;15002;52.028;5.670;2023-06-04T13:50:40;4.28;;;1.35;;
27558;SDS011;15002;52.028;5.670;2023-06-04T13:53:07;3.50;;;1.60;;
27558;SDS011;15002;52.028;5.670;2023-06-04T13:55:38;3.35;;;1.70;;
27558;SDS011;15002;52.028;5.670;2023-06-04T13:58:04;4.30;;;1.55;;
27558;SDS011;15002;52.028;5.670;2023-06-04T14:00:30;2.30;;;1.40;;
27558;SDS011;15002;52.028;5.670;2023-06-04T14:02:55;2.22;;;1.50;;
27558;SDS011;15002;52.028;5.670;2023-06-04T14:05:21;4.60;;;1.75;;
27558;SDS011;15002;52.028;5.670;2023-06-04T14:07:48;3.28;;;1.33;;
27558;SDS011;15002;52.028;5.670;2023-06-04T14:10:14;2.67;;;1.38;;
27558;SDS011;15002;52.028;5.670;2023-06-04T14:12:40;2.70;;;1.60;;
27558;SDS011;15002;52.028;5.670;2023-06-04T14:15:06;2.88;;;1.50;;
27558;SDS011;15002;52.028;5.670;2023-06-04T14:17:33;2.72;;;1.73;;
27558;SDS011;15002;52.028;5.670;2023-06-04T14:20:00;3.55;;;1.35;;
27558;SDS011;15002;52.028;5.670;2023-06-04T14:22:35;3.28;;;1.40;;
27558;SDS011;15002;52.028;5.670;2023-06-04T14:25:04;4.20;;;1.30;;
27558;SDS011;15002;52.028;5.670;2023-06-04T14:27:33;1.70;;;1.30;;
27558;SDS011;15002;52.028;5.670;2023-06-04T14:30:00;3.35;;;1.85;;
27558;SDS011;15002;52.028;5.670;2023-06-04T14:32:27;1.85;;;1.40;;
27558;SDS011;15002;52.028;5.670;2023-06-04T14:34:52;3.22;;;1.92;;
27558;SDS011;15002;52.028;5.670;2023-06-04T14:37:18;3.63;;;1.58;;
27558;SDS011;15002;52.028;5.670;2023-06-04T14:39:45;2.38;;;1.50;;
27558;SDS011;15002;52.028;5.670;2023-06-04T14:42:12;3.08;;;1.80;;
27558;SDS011;15002;52.028;5.670;2023-06-04T14:44:38;2.70;;;1.63;;
27558;SDS011;15002;52.028;5.670;2023-06-04T14:47:04;2.42;;;1.58;;
27558;SDS011;15002;52.028;5.670;2023-06-04T14:49:29;2.83;;;1.55;;
27558;SDS011;15002;52.028;5.670;2023-06-04T14:51:55;2.08;;;1.40;;
27558;SDS011;15002;52.028;5.670;2023-06-04T14:54:21;1.80;;;1.13;;
27558;SDS011;15002;52.028;5.670;2023-06-04T14:56:46;2.95;;;1.73;;
27558;SDS011;15002;52.028;5.670;2023-06-04T14:59:12;2.80;;;1.20;;
27558;SDS011;15002;52.028;5.670;2023-06-04T15:01:38;2.30;;;1.70;;